Time;durP1;ratioP1;P1;durP2;ratioP2;P2;SDS_P1;SDS_P2;PMS_P1;PMS_P2;Temp;Humidity;BMP_temperature;BMP_pressure;BME280_temperature;BME280_humidity;BME280_pressure;Samples;Min_cycle;Max_cycle;Signal;HPM_P1;HPM_P2
2022/08/11 00:01:14;;;;;;;0.40;0.40;;;;;;;25.45;45.50;95204.56;5035727;28;20331;-66
2022/08/11 00:03:47;;;;;;;0.40;0.40;;;;;;;25.49;44.95;95202.78;5040362;28;20217;-65
2022/08/11 00:06:22;;;;;;;0.77;0.60;;;;;;;24.99;46.47;95206.69;5041218;28;20243;-68
2022/08/11 00:08:50;;;;;;;0.47;0.47;;;;;;;25.21;46.12;95207.31;5039441;28;20203;-68
2022/08/11 00:11:18;;;;;;;0.50;0.50;;;;;;;25.45;45.29;95207.25;5036348;28;20251;-67
2022/08/11 00:13:48;;;;;;;0.40;0.40;;;;;;;25.46;45.14;95208.81;5021435;28;20198;-66
2022/08/11 00:16:21;;;;;;;0.30;0.30;;;;;;;25.82;44.64;95197.94;5033869;28;20206;-65
2022/08/11 00:18:51;;;;;;;1.63;0.57;;;;;;;25.40;44.53;95183.38;5032514;28;20635;-68
2022/08/11 00:21:24;;;;;;;1.57;1.07;;;;;;;25.59;45.04;95207.66;5031487;28;20644;-65
2022/08/11 00:24:11;;;;;;;0.40;0.40;;;;;;;25.11;45.88;95203.19;5028947;28;20193;-68
2022/08/11 00:26:38;;;;;;;0.43;0.43;;;;;;;25.14;45.94;95209.78;5022028;28;20757;-67
2022/08/11 00:29:10;;;;;;;0.33;0.33;;;;;;;24.97;46.52;95197.41;5033360;28;20204;-67
2022/08/11 00:31:42;;;;;;;0.37;0.37;;;;;;;24.84;46.75;95207.38;5031718;28;20658;-64
2022/08/11 00:34:11;;;;;;;2.20;0.70;;;;;;;24.84;46.79;95203.91;5018547;28;20672;-67
2022/08/11 00:37:01;;;;;;;0.30;0.30;;;;;;;24.32;48.09;95198.47;5023867;28;20244;-63
2022/08/11 00:39:33;;;;;;;0.33;0.33;;;;;;;24.50;47.68;95194.44;5026343;28;20599;-65
2022/08/11 00:42:14;;;;;;;0.60;0.60;;;;;;;24.36;48.20;95207.38;5023335;28;20209;-67
2022/08/11 00:45:21;;;;;;;0.70;0.70;;;;;;;24.46;47.62;95198.13;5032966;28;20216;-65
2022/08/11 00:48:07;;;;;;;1.07;0.70;;;;;;;24.71;47.17;95200.47;5022160;28;20288;-67
2022/08/11 00:50:57;;;;;;;0.60;0.60;;;;;;;24.82;47.12;95198.91;5032323;28;20213;-67
2022/08/11 00:53:32;;;;;;;0.20;0.20;;;;;;;24.52;47.76;95202.94;5032407;28;20300;-66
2022/08/11 00:56:27;;;;;;;0.40;0.40;;;;;;;24.94;46.67;95198.88;5031518;28;20224;-67
2022/08/11 00:58:57;;;;;;;0.50;0.43;;;;;;;24.84;46.89;95204.72;5031753;28;20208;-66
2022/08/11 01:02:04;;;;;;;0.23;0.23;;;;;;;25.12;46.35;95198.63;5030502;28;20193;-67
2022/08/11 01:04:56;;;;;;;0.83;0.83;;;;;;;25.17;46.13;95201.06;5021941;28;20211;-66
2022/08/11 01:07:43;;;;;;;0.93;0.50;;;;;;;25.20;45.69;95203.06;5031264;28;20319;-67
2022/08/11 01:10:56;;;;;;;0.47;0.47;;;;;;;25.49;45.21;95197.41;5009161;28;20204;-66
2022/08/11 01:14:18;;;;;;;0.30;0.30;;;;;;;24.99;46.46;95198.66;5032331;28;20208;-68
2022/08/11 01:17:47;;;;;;;1.03;0.70;;;;;;;25.30;45.84;95186.50;4995264;28;20383;-65
2022/08/11 01:20:38;;;;;;;0.57;0.50;;;;;;;25.23;45.78;95180.94;5025239;28;20258;-66
2022/08/11 01:23:32;;;;;;;0.50;0.50;;;;;;;25.55;45.13;95185.28;5012095;28;20288;-67
2022/08/11 01:26:23;;;;;;;0.40;0.40;;;;;;;25.46;45.18;95188.13;5016396;28;20224;-69
2022/08/11 01:28:59;;;;;;;1.30;0.63;;;;;;;25.45;45.50;95188.47;5031591;28;20205;-67
2022/08/11 01:31:47;;;;;;;1.00;0.90;;;;;;;25.80;44.83;95182.16;5031734;28;20208;-68
2022/08/11 01:34:26;;;;;;;1.10;1.10;;;;;;;25.39;45.55;95171.06;5031310;28;20200;-67
2022/08/11 01:36:53;;;;;;;3.17;1.53;;;;;;;25.45;45.29;95180.44;5020587;28;20205;-67
2022/08/11 01:39:56;;;;;;;0.90;0.47;;;;;;;25.48;45.49;95185.09;5028897;28;20204;-68
2022/08/11 01:46:11;;;;;;;0.80;0.80;;;;;;;25.55;45.36;95169.97;5011484;28;20217;-67
2022/08/11 01:48:48;;;;;;;0.53;0.53;;;;;;;25.39;45.68;95176.41;5011801;28;20221;-68
2022/08/11 01:52:00;;;;;;;0.17;0.17;;;;;;;25.51;45.20;95173.72;5028311;28;20259;-68
2022/08/11 01:54:33;;;;;;;0.70;0.70;;;;;;;25.65;44.95;95168.72;5031510;28;20204;-65
2022/08/11 01:57:18;;;;;;;0.80;0.80;;;;;;;25.55;45.22;95171.88;5031320;28;20288;-66
2022/08/11 01:59:50;;;;;;;1.17;0.70;;;;;;;25.19;45.96;95182.72;5031093;28;20201;-66
2022/08/11 02:02:47;;;;;;;1.17;0.70;;;;;;;25.29;45.58;95176.91;5017174;28;20288;-69
2022/08/11 02:05:20;;;;;;;0.50;0.50;;;;;;;25.31;45.59;95180.03;5029024;28;20193;-67
2022/08/11 02:08:15;;;;;;;0.73;0.73;;;;;;;25.22;45.88;95176.69;5030553;28;20224;-67
2022/08/11 02:11:30;;;;;;;0.20;0.20;;;;;;;25.29;45.65;95174.97;5031037;28;20262;-68
2022/08/11 02:14:21;;;;;;;0.43;0.43;;;;;;;25.33;45.72;95167.06;5030553;28;20269;-67
2022/08/11 02:17:12;;;;;;;0.30;0.30;;;;;;;25.26;45.93;95172.19;5030282;28;20201;-66
2022/08/11 02:25:51;;;;;;;0.87;0.87;;;;;;;25.33;45.49;95175.84;5025475;28;20211;-66
2022/08/11 02:28:43;;;;;;;0.93;0.60;;;;;;;25.37;45.38;95174.06;5020912;28;20271;-67
2022/08/11 02:35:00;;;;;;;1.30;0.90;;;;;;;25.44;45.44;95173.50;5033852;28;20192;-68
2022/08/11 02:37:32;;;;;;;0.23;0.23;;;;;;;25.53;45.15;95182.19;5029092;28;20257;-68
2022/08/11 02:40:02;;;;;;;0.33;0.33;;;;;;;25.62;44.89;95185.50;5028801;28;20193;-68
2022/08/11 02:42:38;;;;;;;1.13;1.13;;;;;;;25.72;44.78;95179.63;5029638;28;20204;-67
2022/08/11 02:45:30;;;;;;;0.30;0.30;;;;;;;25.49;45.16;95181.31;5022943;28;20190;-67
2022/08/11 02:51:09;;;;;;;0.30;0.30;;;;;;;25.58;44.97;95168.53;5030985;28;20672;-69
2022/08/11 02:53:45;;;;;;;0.63;0.60;;;;;;;25.46;45.00;95171.25;5011306;28;20201;-68
2022/08/11 02:56:49;;;;;;;0.87;0.87;;;;;;;25.39;45.28;95171.06;5023792;28;20207;-67
2022/08/11 02:59:51;;;;;;;0.50;0.50;;;;;;;25.37;45.02;95184.00;5012958;28;20193;-68
2022/08/11 03:02:42;;;;;;;0.43;0.43;;;;;;;24.98;46.11;95178.31;5015544;28;20545;-69
2022/08/11 03:05:10;;;;;;;0.73;0.70;;;;;;;25.02;45.81;95184.56;5030106;28;20592;-67
2022/08/11 03:08:14;;;;;;;0.10;0.10;;;;;;;25.20;45.83;95184.31;5029192;28;20260;-68
2022/08/11 03:17:03;;;;;;;0.60;0.60;;;;;;;25.02;45.77;95192.59;5015850;28;20627;-70
2022/08/11 03:19:30;;;;;;;0.43;0.43;;;;;;;24.95;45.88;95168.28;5029900;28;20255;-68
2022/08/11 03:22:22;;;;;;;0.73;0.73;;;;;;;25.08;45.78;95193.94;5026346;28;20244;-66
2022/08/11 03:24:53;;;;;;;1.23;0.63;;;;;;;25.11;45.80;95189.03;5022554;28;20189;-68
2022/08/11 03:27:20;;;;;;;0.40;0.40;;;;;;;25.00;45.96;95181.44;5015642;28;20311;-66
2022/08/11 03:30:01;;;;;;;0.37;0.37;;;;;;;24.73;46.21;95184.06;5029404;28;20250;-67
2022/08/11 03:36:08;;;;;;;0.53;0.53;;;;;;;24.77;46.09;95193.78;5029202;28;20189;-69
2022/08/11 03:38:55;;;;;;;0.87;0.63;;;;;;;25.02;45.74;95189.94;5029544;28;20207;-66
2022/08/11 03:41:44;;;;;;;1.13;1.03;;;;;;;24.91;46.11;95186.16;5019252;28;20579;-68
2022/08/11 03:45:01;;;;;;;0.47;0.47;;;;;;;24.80;46.32;95198.44;5016928;28;20672;-67
2022/08/11 03:47:31;;;;;;;0.50;0.50;;;;;;;24.94;46.15;95188.16;5029498;28;20225;-67
2022/08/11 03:50:21;;;;;;;0.67;0.67;;;;;;;24.72;46.57;95199.38;5028833;28;20205;-68
2022/08/11 03:53:16;;;;;;;0.20;0.20;;;;;;;24.70;46.42;95195.44;5029079;28;20212;-68
2022/08/11 03:56:06;;;;;;;8.10;1.80;;;;;;;24.48;46.74;95191.31;5028894;28;20246;-68
2022/08/11 03:58:39;;;;;;;0.87;0.87;;;;;;;24.67;46.70;95196.88;5029297;28;20204;-69
2022/08/11 04:01:40;;;;;;;0.67;0.67;;;;;;;24.51;46.96;95197.88;5028144;28;20201;-67
2022/08/11 04:04:44;;;;;;;0.20;0.20;;;;;;;24.54;46.97;95199.91;5029207;28;20197;-69
2022/08/11 04:07:46;;;;;;;0.30;0.30;;;;;;;24.64;46.59;95205.59;5016210;28;20231;-70
2022/08/11 04:10:45;;;;;;;0.30;0.30;;;;;;;24.55;46.65;95199.56;5007534;28;20205;-69
2022/08/11 04:13:48;;;;;;;0.20;0.20;;;;;;;24.37;47.55;95205.47;5029495;28;20205;-70
2022/08/11 04:16:30;;;;;;;0.20;0.20;;;;;;;24.47;47.53;95205.81;5032617;28;20193;-69
2022/08/11 04:19:06;;;;;;;0.30;0.30;;;;;;;24.37;47.42;95206.28;5018198;28;20202;-70
2022/08/11 04:21:58;;;;;;;1.07;0.57;;;;;;;24.48;47.32;95204.72;5032473;28;20294;-69
2022/08/11 04:25:01;;;;;;;0.90;0.60;;;;;;;24.49;47.40;95206.25;5029184;28;20233;-67
2022/08/11 04:27:40;;;;;;;1.60;1.33;;;;;;;24.57;47.15;95200.03;5031543;28;20217;-70
2022/08/11 04:30:13;;;;;;;0.77;0.77;;;;;;;24.39;47.50;95200.56;5031481;28;20201;-69
2022/08/11 04:32:57;;;;;;;0.63;0.63;;;;;;;24.55;47.34;95207.59;5017804;28;20202;-68
2022/08/11 04:35:53;;;;;;;2.10;1.17;;;;;;;24.38;47.81;95199.78;5019985;28;20260;-72
2022/08/11 04:38:57;;;;;;;0.47;0.47;;;;;;;24.90;46.55;95208.72;5018724;28;20201;-69
2022/08/11 04:44:51;;;;;;;1.03;0.60;;;;;;;24.87;46.40;95205.94;5001982;28;20249;-70
2022/08/11 05:04:05;;;;;;;1.57;1.47;;;;;;;24.84;46.39;95193.97;5031834;28;20200;-71
2022/08/11 05:06:49;;;;;;;1.30;1.20;;;;;;;25.12;45.95;95212.03;5031300;28;20312;-68
2022/08/11 05:09:27;;;;;;;0.30;0.30;;;;;;;24.83;47.04;95203.16;5019358;28;20193;-70
2022/08/11 05:12:35;;;;;;;0.70;0.67;;;;;;;24.88;46.73;95212.84;5031936;28;20213;-70
2022/08/11 05:35:59;;;;;;;0.97;0.73;;;;;;;25.83;44.61;95207.53;5029673;28;20205;-69
2022/08/11 05:58:39;;;;;;;1.90;1.80;;;;;;;25.69;45.88;95202.56;5031065;28;20201;-69
2022/08/11 06:01:10;;;;;;;0.60;0.60;;;;;;;26.04;44.56;95186.63;5031529;28;20201;-69
2022/08/11 06:06:28;;;;;;;1.80;1.70;;;;;;;25.08;45.90;95199.31;5018663;28;20703;-68
2022/08/11 06:08:56;;;;;;;3.07;0.70;;;;;;;25.45;46.07;95199.22;5024929;28;20260;-68
2022/08/11 06:11:24;;;;;;;0.60;0.60;;;;;;;25.57;45.25;95199.16;5037011;28;20632;-67
2022/08/11 06:14:11;;;;;;;0.53;0.53;;;;;;;25.56;46.03;95201.06;5031179;28;20652;-71
2022/08/11 06:16:41;;;;;;;0.20;0.20;;;;;;;26.03;45.30;95201.16;5030743;28;20201;-68
2022/08/11 06:19:09;;;;;;;0.47;0.47;;;;;;;25.92;45.43;95194.72;5030745;28;20225;-70
2022/08/11 06:21:37;;;;;;;2.00;1.10;;;;;;;25.54;45.50;95178.38;5022983;28;20201;-70
2022/08/11 06:24:14;;;;;;;0.43;0.43;;;;;;;25.90;45.62;95186.22;5033519;28;20653;-72
2022/08/11 06:26:49;;;;;;;0.50;0.50;;;;;;;25.80;45.34;95192.13;5031533;28;20296;-67
2022/08/11 06:29:40;;;;;;;0.43;0.43;;;;;;;26.34;44.13;95179.69;5017924;28;20201;-71
2022/08/11 06:32:14;;;;;;;0.40;0.40;;;;;;;26.53;43.80;95187.06;5030376;28;20210;-69
2022/08/11 06:34:47;;;;;;;0.37;0.37;;;;;;;26.79;43.28;95182.69;5030640;28;20429;-72
2022/08/11 06:37:26;;;;;;;0.50;0.50;;;;;;;26.79;43.23;95180.00;5030441;28;20197;-68
2022/08/11 06:40:17;;;;;;;0.80;0.80;;;;;;;26.51;43.59;95187.41;5018147;28;20292;-66
2022/08/11 06:43:22;;;;;;;0.50;0.50;;;;;;;26.43;43.34;95187.56;5030122;28;20193;-67
2022/08/11 06:46:04;;;;;;;1.60;1.07;;;;;;;26.60;43.09;95188.00;5019616;28;20212;-67
2022/08/11 06:48:33;;;;;;;0.67;0.67;;;;;;;26.71;42.60;95169.47;5031340;28;20240;-66
2022/08/11 06:51:11;;;;;;;1.80;0.67;;;;;;;26.67;42.70;95182.78;5030329;28;20270;-67
2022/08/11 06:53:43;;;;;;;0.10;0.10;;;;;;;26.61;41.30;95186.88;5023424;28;20199;-67
2022/08/11 07:02:36;;;;;;;0.47;0.47;;;;;;;26.99;41.23;95178.91;5017772;28;20197;-70
2022/08/11 07:05:09;;;;;;;0.97;0.93;;;;;;;27.35;41.44;95179.69;5028656;28;20209;-69
2022/08/11 07:17:10;;;;;;;1.03;0.97;;;;;;;27.90;39.37;95169.19;4986026;28;20207;-66
2022/08/11 07:31:03;;;;;;;0.57;0.57;;;;;;;28.53;37.36;95190.31;5009810;28;20201;-68
2022/08/11 07:33:41;;;;;;;0.30;0.30;;;;;;;28.58;36.80;95188.09;4999683;28;20264;-68
2022/08/11 07:36:30;;;;;;;0.50;0.50;;;;;;;28.57;36.03;95183.84;4990373;28;20191;-67
2022/08/11 07:38:59;;;;;;;0.70;0.70;;;;;;;28.28;36.74;95189.13;4977097;28;20226;-68
2022/08/11 07:41:29;;;;;;;2.43;1.60;;;;;;;28.58;36.72;95187.31;4976215;28;20253;-68
2022/08/11 07:44:07;;;;;;;0.50;0.50;;;;;;;28.25;38.84;95174.44;4988819;28;20202;-67
2022/08/11 07:52:25;;;;;;;0.67;0.67;;;;;;;28.79;36.18;95172.25;4994185;28;20636;-65
2022/08/11 07:54:54;;;;;;;0.50;0.50;;;;;;;28.58;36.05;95179.22;4993736;28;20205;-68
2022/08/11 08:20:44;;;;;;;0.60;0.60;;;;;;;29.60;35.57;95164.41;5032582;28;20244;-66
2022/08/11 08:23:12;;;;;;;0.50;0.50;;;;;;;29.64;34.67;95159.81;5023215;28;20208;-66
2022/08/11 08:25:42;;;;;;;0.50;0.50;;;;;;;29.34;34.18;95159.88;5028430;28;20671;-67
2022/08/11 08:28:13;;;;;;;0.57;0.57;;;;;;;29.75;34.34;95152.63;5032330;28;20228;-67
2022/08/11 08:30:49;;;;;;;0.23;0.23;;;;;;;29.60;34.85;95135.47;5032727;28;20270;-67
2022/08/11 08:33:25;;;;;;;0.57;0.37;;;;;;;29.09;34.76;95158.00;5032834;28;20197;-67
2022/08/11 08:36:15;;;;;;;0.33;0.33;;;;;;;29.48;33.63;95146.53;5032591;28;20288;-68
2022/08/11 08:38:47;;;;;;;0.63;0.63;;;;;;;30.05;33.33;95141.75;5032320;28;20215;-68
2022/08/11 08:41:21;;;;;;;0.40;0.40;;;;;;;29.87;33.18;95144.28;5032506;28;20617;-67
2022/08/11 08:43:52;;;;;;;0.40;0.40;;;;;;;30.16;34.04;95140.69;5032769;28;20205;-67
2022/08/11 08:46:26;;;;;;;0.63;0.53;;;;;;;29.68;34.39;95147.94;5027876;28;20694;-66
2022/08/11 08:48:54;;;;;;;1.03;0.83;;;;;;;30.14;33.03;95143.00;5023162;28;20741;-66
2022/08/11 08:51:34;;;;;;;0.30;0.30;;;;;;;30.20;32.79;95130.66;5032527;28;20192;-66
2022/08/11 08:54:32;;;;;;;0.83;0.83;;;;;;;30.24;32.31;95139.59;5031871;28;20239;-69
2022/08/11 08:57:04;;;;;;;0.50;0.33;;;;;;;30.06;31.87;95135.97;5031950;28;20193;-66
2022/08/11 08:59:38;;;;;;;0.60;0.60;;;;;;;29.58;32.82;95139.72;5031807;28;20626;-67
2022/08/11 09:02:19;;;;;;;1.00;0.90;;;;;;;30.42;32.58;95137.81;5031975;28;20197;-68
2022/08/11 09:05:03;;;;;;;0.33;0.33;;;;;;;30.95;32.96;95132.03;5031705;28;20193;-67
2022/08/11 09:07:31;;;;;;;0.20;0.20;;;;;;;31.21;31.57;95134.44;5031273;28;21058;-66
2022/08/11 09:10:09;;;;;;;0.73;0.63;;;;;;;31.16;32.83;95137.53;5031960;28;20251;-67
2022/08/11 09:12:39;;;;;;;0.83;0.57;;;;;;;31.14;33.02;95123.59;5019042;28;20205;-66
2022/08/11 09:15:08;;;;;;;0.57;0.57;;;;;;;31.63;31.34;95121.06;5031751;28;20220;-66
2022/08/11 09:17:40;;;;;;;1.20;0.63;;;;;;;31.70;31.38;95126.50;5031387;28;20205;-68
2022/08/11 09:20:12;;;;;;;0.57;0.57;;;;;;;31.17;31.57;95123.59;5031783;28;20228;-66
2022/08/11 09:28:36;;;;;;;0.73;0.73;;;;;;;29.81;33.27;95126.84;5024335;28;20224;-67
2022/08/11 09:31:05;;;;;;;0.97;0.87;;;;;;;30.25;32.05;95121.44;5017546;28;20267;-67
2022/08/11 09:33:32;;;;;;;0.47;0.47;;;;;;;30.39;32.17;95103.44;5031713;28;20209;-66
2022/08/11 09:40:27;;;;;;;0.30;0.30;;;;;;;31.04;31.10;95118.91;5031449;28;20255;-68
2022/08/11 09:41:38;;;;;;;0.63;0.60;;;;;;;30.72;32.38;95114.06;5018969;28;20204;-66
2022/08/11 09:47:20;;;;;;;9.37;1.17;;;;;;;31.13;31.75;95105.81;5023141;28;20251;-68
2022/08/11 09:49:49;;;;;;;0.50;0.50;;;;;;;30.85;31.94;95112.63;5031333;28;20624;-66
2022/08/11 09:52:17;;;;;;;0.60;0.60;;;;;;;31.04;31.67;95102.69;5021653;28;20198;-67
2022/08/11 09:54:48;;;;;;;0.63;0.63;;;;;;;30.46;33.16;95110.81;5030618;28;20742;-67
2022/08/11 10:00:08;;;;;;;0.30;0.30;;;;;;;30.42;31.58;95110.03;5027361;28;20197;-69
2022/08/11 10:02:45;;;;;;;0.47;0.47;;;;;;;30.96;31.79;95107.28;5031667;28;20205;-66
2022/08/11 10:08:03;;;;;;;0.20;0.20;;;;;;;31.41;29.89;95095.88;5031267;28;20221;-66
2022/08/11 10:10:34;;;;;;;0.40;0.40;;;;;;;31.33;31.74;95094.25;5029819;28;20824;-65
2022/08/11 10:13:06;;;;;;;0.87;0.87;;;;;;;31.54;29.60;95088.16;5033109;28;20216;-65
2022/08/11 10:16:01;;;;;;;1.80;1.43;;;;;;;31.68;30.38;95088.19;5033275;28;20322;-67
2022/08/11 10:18:50;;;;;;;1.43;0.97;;;;;;;31.47;30.19;95074.59;5031298;28;20259;-66
2022/08/11 10:21:27;;;;;;;0.97;0.97;;;;;;;31.82;31.70;95080.09;5030923;28;20189;-66
2022/08/11 10:26:53;;;;;;;0.40;0.40;;;;;;;32.63;30.30;95082.78;5030443;28;20684;-66
2022/08/11 10:35:07;;;;;;;0.30;0.30;;;;;;;32.85;29.42;95080.81;5020083;28;20259;-66
2022/08/11 10:37:36;;;;;;;1.23;0.67;;;;;;;32.75;28.88;95085.09;5027927;28;20671;-66
2022/08/11 10:40:24;;;;;;;0.83;0.83;;;;;;;32.67;28.85;95078.91;5021776;28;20682;-65
2022/08/11 10:43:09;;;;;;;0.40;0.40;;;;;;;32.91;28.67;95076.50;5029844;28;20932;-65
2022/08/11 10:48:26;;;;;;;0.30;0.30;;;;;;;33.13;28.82;95073.38;5029958;28;20290;-66
2022/08/11 10:51:13;;;;;;;1.90;1.23;;;;;;;33.57;28.15;95061.91;5029867;28;20225;-65
2022/08/11 10:59:27;;;;;;;0.50;0.50;;;;;;;32.96;29.04;95057.13;5029936;28;20205;-66
2022/08/11 11:01:54;;;;;;;0.60;0.60;;;;;;;33.49;27.53;95052.25;5030043;28;20563;-67
2022/08/11 11:04:43;;;;;;;1.07;1.00;;;;;;;33.70;27.03;95061.03;5029642;28;20703;-67
2022/08/11 11:07:23;;;;;;;0.53;0.53;;;;;;;33.62;27.19;95039.75;5029348;28;20256;-66
2022/08/11 11:09:56;;;;;;;0.40;0.40;;;;;;;33.73;27.16;95048.59;5017874;28;20296;-67
2022/08/11 11:18:17;;;;;;;1.03;1.03;;;;;;;33.71;27.13;95053.66;5019606;28;20553;-66
2022/08/11 11:20:50;;;;;;;0.70;0.70;;;;;;;33.49;27.86;95044.09;5029362;28;20290;-67
2022/08/11 11:23:32;;;;;;;0.93;0.93;;;;;;;33.32;27.36;95047.66;5028925;28;20283;-67
2022/08/11 11:26:19;;;;;;;0.60;0.60;;;;;;;33.22;27.44;95059.34;5029409;28;20295;-68
2022/08/11 11:29:08;;;;;;;2.00;1.90;;;;;;;33.63;27.38;95054.91;5029345;28;20228;-66
2022/08/11 11:31:59;;;;;;;0.80;0.80;;;;;;;33.16;28.24;95059.00;5029553;28;20201;-65
2022/08/11 11:35:16;;;;;;;1.97;1.47;;;;;;;33.51;27.23;95055.34;5029055;28;20295;-67
2022/08/11 11:37:49;;;;;;;0.50;0.50;;;;;;;33.25;27.06;95053.16;4987685;28;20210;-68
2022/08/11 11:40:30;;;;;;;0.27;0.27;;;;;;;32.77;28.98;95066.50;4987950;28;20194;-68
2022/08/11 11:42:59;;;;;;;1.53;0.67;;;;;;;33.43;28.80;95061.97;5013684;28;20575;-67
2022/08/11 11:45:26;;;;;;;3.57;1.40;;;;;;;33.19;29.18;95050.06;5029715;28;20205;-66
2022/08/11 11:47:57;;;;;;;0.53;0.53;;;;;;;33.46;29.40;95042.97;5029422;28;20197;-67
2022/08/11 11:50:33;;;;;;;0.30;0.30;;;;;;;33.00;29.36;95052.47;5029526;28;20213;-66
2022/08/11 11:53:04;;;;;;;0.60;0.60;;;;;;;32.78;29.10;95047.09;5029761;28;20200;-68
2022/08/11 11:55:33;;;;;;;0.33;0.33;;;;;;;33.16;29.13;95009.31;5029668;28;20577;-67
2022/08/11 12:03:38;;;;;;;0.57;0.57;;;;;;;32.73;29.01;95044.78;5029701;28;20252;-67
2022/08/11 12:06:07;;;;;;;0.87;0.87;;;;;;;32.77;29.17;95050.22;5029074;28;20233;-67
2022/08/11 12:08:35;;;;;;;0.30;0.30;;;;;;;32.57;29.16;95046.38;5029252;28;20216;-66
2022/08/11 12:13:57;;;;;;;0.33;0.33;;;;;;;32.86;29.24;95036.22;5029304;28;20594;-67
2022/08/11 12:16:25;;;;;;;0.53;0.53;;;;;;;32.79;29.14;95037.78;5019358;28;20253;-67
2022/08/11 12:19:10;;;;;;;0.60;0.60;;;;;;;33.00;29.79;95030.75;5041712;28;20642;-66
2022/08/11 12:27:19;;;;;;;0.87;0.87;;;;;;;32.94;29.76;95032.34;5029175;28;20205;-67
2022/08/11 12:27:19;;;;;;;1.03;0.93;;;;;;;32.11;30.27;95032.88;5013647;28;20304;-67
2022/08/11 12:29:59;;;;;;;0.77;0.77;;;;;;;31.75;30.57;95028.59;5029324;28;20710;-67
2022/08/11 12:32:30;;;;;;;0.40;0.40;;;;;;;31.91;30.72;95039.06;5027626;28;20291;-67
2022/08/11 12:34:57;;;;;;;0.77;0.77;;;;;;;31.99;31.45;95038.69;5030681;28;20201;-67
2022/08/11 12:37:30;;;;;;;0.97;0.97;;;;;;;32.41;30.29;95040.59;5032764;28;20193;-68
2022/08/11 12:46:22;;;;;;;0.50;0.50;;;;;;;33.26;29.34;95041.09;5032352;28;20278;-67
2022/08/11 12:51:58;;;;;;;0.43;0.43;;;;;;;32.47;29.80;95053.38;5018712;28;20203;-67
2022/08/11 12:54:56;;;;;;;0.77;0.70;;;;;;;32.04;31.38;95062.72;5019657;28;20296;-67
2022/08/11 13:05:56;;;;;;;0.50;0.50;;;;;;;33.10;30.62;95048.94;5019263;28;20719;-66
2022/08/11 13:08:24;;;;;;;0.30;0.30;;;;;;;32.57;31.76;95054.53;5031873;28;20212;-67
2022/08/11 13:13:42;;;;;;;0.47;0.47;;;;;;;32.68;31.16;95055.28;5032049;28;20208;-66
2022/08/11 13:16:26;;;;;;;0.33;0.33;;;;;;;33.01;31.23;95043.16;5031456;28;20209;-66
2022/08/11 13:18:56;;;;;;;0.50;0.50;;;;;;;33.27;30.41;95039.91;5017997;28;20293;-66
2022/08/11 13:21:24;;;;;;;0.60;0.60;;;;;;;33.36;29.41;95041.03;5031513;28;20673;-68
2022/08/11 13:23:53;;;;;;;0.50;0.50;;;;;;;33.31;28.63;95016.22;5031400;28;20688;-66
2022/08/11 13:26:34;;;;;;;0.77;0.77;;;;;;;32.79;29.45;95042.44;5022839;28;20680;-66
2022/08/11 13:29:16;;;;;;;0.50;0.50;;;;;;;32.17;30.33;95034.00;5025465;28;20214;-66
2022/08/11 13:31:44;;;;;;;0.50;0.50;;;;;;;32.67;29.45;95030.06;5021721;28;20682;-68
2022/08/11 13:34:12;;;;;;;0.30;0.30;;;;;;;32.24;29.06;95025.88;5029223;28;20199;-66
2022/08/11 13:36:40;;;;;;;0.27;0.27;;;;;;;32.80;28.28;95033.13;5020283;28;20537;-66
2022/08/11 13:39:08;;;;;;;0.97;0.50;;;;;;;32.89;28.00;95025.34;5031321;28;20197;-68
2022/08/11 13:41:37;;;;;;;0.20;0.20;;;;;;;32.87;27.70;95030.38;5031706;28;20229;-66
2022/08/11 13:44:10;;;;;;;0.20;0.20;;;;;;;33.23;26.98;95022.88;5031568;28;20315;-70
2022/08/11 13:46:39;;;;;;;1.30;0.73;;;;;;;33.77;26.86;95014.00;5031214;28;20196;-66
2022/08/11 13:49:11;;;;;;;0.47;0.47;;;;;;;34.13;26.85;95015.28;5032091;28;20209;-67
2022/08/11 13:51:38;;;;;;;0.80;0.80;;;;;;;34.50;26.31;95007.19;5031960;28;20741;-67
2022/08/11 13:54:09;;;;;;;0.30;0.30;;;;;;;34.88;25.82;95009.84;5031728;28;21084;-68
2022/08/11 13:56:38;;;;;;;0.20;0.20;;;;;;;34.55;26.29;94998.56;5031754;28;20941;-68
2022/08/11 13:59:09;;;;;;;0.40;0.40;;;;;;;34.11;25.80;95001.31;5030966;28;20220;-69
2022/08/11 14:01:39;;;;;;;0.40;0.40;;;;;;;34.50;26.16;95000.94;5031089;28;20209;-68
2022/08/11 14:04:36;;;;;;;0.50;0.50;;;;;;;34.58;25.51;94970.53;5020852;28;20204;-66
2022/08/11 14:07:06;;;;;;;0.77;0.53;;;;;;;33.93;25.97;95000.66;5031705;28;20259;-67
2022/08/11 14:09:40;;;;;;;0.60;0.60;;;;;;;34.40;24.95;95002.56;5031243;28;20316;-68
2022/08/11 14:15:09;;;;;;;0.60;0.60;;;;;;;35.34;24.49;94999.16;5031013;28;20201;-66
2022/08/11 14:17:39;;;;;;;0.20;0.20;;;;;;;35.58;24.40;94992.59;5016989;28;20297;-66
2022/08/11 14:20:18;;;;;;;0.50;0.50;;;;;;;35.60;23.36;94990.97;5031051;28;20223;-67
2022/08/11 14:23:06;;;;;;;0.40;0.40;;;;;;;35.26;23.72;94992.25;5010570;28;20206;-67
2022/08/11 14:25:33;;;;;;;0.60;0.60;;;;;;;35.59;24.19;94994.13;5025625;28;20627;-67
2022/08/11 14:28:20;;;;;;;0.70;0.70;;;;;;;36.35;23.32;94988.56;5029848;28;20235;-69
2022/08/11 14:31:04;;;;;;;0.50;0.50;;;;;;;36.18;23.45;94991.63;5022430;28;20318;-67
2022/08/11 14:33:32;;;;;;;0.43;0.43;;;;;;;36.15;23.72;94992.47;5028554;28;20255;-66
2022/08/11 14:36:21;;;;;;;0.67;0.67;;;;;;;36.24;23.52;94996.19;5029229;28;20205;-68
2022/08/11 14:38:49;;;;;;;5.60;4.43;;;;;;;36.72;23.25;94984.78;5029077;28;20558;-68
2022/08/11 14:47:14;;;;;;;0.60;0.60;;;;;;;36.18;23.87;94976.03;5028084;28;22211;-67
2022/08/11 14:49:53;;;;;;;1.10;1.03;;;;;;;35.93;24.20;94988.56;5028673;28;20243;-66
2022/08/11 14:52:48;;;;;;;0.60;0.60;;;;;;;35.37;24.96;94981.97;5015817;28;20267;-65
2022/08/11 14:58:03;;;;;;;0.57;0.47;;;;;;;36.08;24.77;94979.72;5029465;28;20193;-67
2022/08/11 15:00:33;;;;;;;0.40;0.40;;;;;;;35.75;25.09;94979.88;5029352;28;20200;-64
2022/08/11 15:03:08;;;;;;;1.03;0.67;;;;;;;35.67;24.42;94973.75;5029302;28;20423;-67
2022/08/11 15:06:01;;;;;;;0.60;0.53;;;;;;;36.33;24.34;94979.28;5028795;28;20379;-68
2022/08/11 15:17:06;;;;;;;0.60;0.50;;;;;;;34.78;25.53;94967.97;5015641;28;20197;-67
2022/08/11 15:17:09;;;;;;;0.70;0.60;;;;;;;34.27;26.50;94971.63;5028785;28;20294;-65
2022/08/11 15:24:18;;;;;;;0.73;0.73;;;;;;;34.40;26.01;94980.81;5028875;28;20215;-66
2022/08/11 15:25:12;;;;;;;0.30;0.30;;;;;;;33.68;26.49;94972.94;5028626;28;20305;-65
2022/08/11 15:39:05;;;;;;;1.00;0.83;;;;;;;34.20;25.50;94971.69;5028615;28;20201;-64
2022/08/11 15:47:36;;;;;;;0.40;0.40;;;;;;;33.66;26.05;94965.19;5028098;28;20288;-66
2022/08/11 15:50:07;;;;;;;0.30;0.30;;;;;;;33.40;26.37;94959.50;5028380;28;20232;-66
2022/08/11 15:52:48;;;;;;;0.73;0.73;;;;;;;33.37;26.40;94974.69;5028275;28;20201;-67
2022/08/11 15:55:16;;;;;;;0.27;0.27;;;;;;;33.12;26.81;94962.44;5028303;28;20205;-66
2022/08/11 16:06:58;;;;;;;0.50;0.50;;;;;;;32.59;28.16;94987.84;5028146;28;20231;-65
2022/08/11 16:09:31;;;;;;;2.13;1.03;;;;;;;32.43;28.32;94992.94;5017461;28;20235;-66
2022/08/11 16:12:21;;;;;;;0.33;0.33;;;;;;;32.41;28.31;94983.63;5032320;28;20570;-68
2022/08/11 16:17:43;;;;;;;108.63;42.30;;;;;;;32.25;29.11;94986.75;5031640;28;20201;-67
2022/08/11 16:20:12;;;;;;;29.07;4.20;;;;;;;31.88;28.75;94989.88;5032110;28;20356;-66
2022/08/11 16:22:42;;;;;;;1.00;0.80;;;;;;;31.61;28.75;94979.81;5018305;28;20201;-67
2022/08/11 16:25:29;;;;;;;0.40;0.40;;;;;;;31.71;29.27;94989.88;5029715;28;20204;-65
2022/08/11 16:28:19;;;;;;;0.93;0.70;;;;;;;31.64;28.97;94987.19;5028498;28;20209;-67
2022/08/11 16:30:47;;;;;;;0.83;0.83;;;;;;;31.67;28.86;94987.19;5031620;28;20280;-68
2022/08/11 16:33:15;;;;;;;0.20;0.20;;;;;;;31.68;28.88;94993.34;5031905;28;20548;-67
2022/08/11 16:38:52;;;;;;;2.00;1.20;;;;;;;31.48;29.20;94989.47;5027749;28;20193;-69
2022/08/11 16:47:07;;;;;;;2.03;1.13;;;;;;;31.54;29.03;94996.06;5031302;28;20585;-67
2022/08/11 16:49:37;;;;;;;1.23;1.23;;;;;;;31.17;29.42;94998.31;5031007;28;20207;-65
2022/08/11 16:52:10;;;;;;;0.37;0.37;;;;;;;31.32;28.99;94989.81;5031383;28;20198;-68
2022/08/11 16:54:40;;;;;;;0.90;0.87;;;;;;;31.22;29.08;95006.06;5030955;28;20625;-66
2022/08/11 17:00:14;;;;;;;0.53;0.53;;;;;;;31.17;29.21;95004.47;5030927;28;20715;-66
2022/08/11 17:14:25;;;;;;;0.30;0.30;;;;;;;31.01;29.76;95016.81;5030223;28;20676;-67
2022/08/11 17:17:13;;;;;;;0.53;0.53;;;;;;;31.18;29.68;95021.50;5030949;28;20219;-67
2022/08/11 17:19:48;;;;;;;0.50;0.50;;;;;;;30.96;29.50;95025.31;5017742;28;20251;-67